Time;durP1;ratioP1;P1;durP2;ratioP2;P2;SDS_P1;SDS_P2;PMS_P1;PMS_P2;Temp;Humidity;BMP_temperature;BMP_pressure;BME280_temperature;BME280_humidity;BME280_pressure;Samples;Min_cycle;Max_cycle;Signal;HPM_P1;HPM_P2
2023/03/24 00:01:10;;;;;;;4.90;4.05;;;11.00;99.90;;;;;;5093461;28;20182;-70
2023/03/24 00:03:36;;;;;;;4.38;3.97;;;11.00;99.90;;;;;;5093203;28;20179;-71
2023/03/24 00:06:04;;;;;;;6.32;4.07;;;11.00;99.90;;;;;;5093042;28;20264;-71
2023/03/24 00:08:36;;;;;;;5.47;3.95;;;11.00;99.90;;;;;;5094237;28;20221;-70
2023/03/24 00:11:07;;;;;;;8.25;4.18;;;11.00;99.90;;;;;;5093184;28;20177;-71
2023/03/24 00:13:37;;;;;;;7.13;3.88;;;11.00;99.90;;;;;;5094623;28;20169;-71
2023/03/24 00:16:06;;;;;;;4.15;3.50;;;11.00;99.90;;;;;;5094560;28;20169;-70
2023/03/24 00:18:32;;;;;;;5.15;4.10;;;11.00;99.90;;;;;;5092749;28;20243;-70
2023/03/24 00:20:59;;;;;;;7.22;4.28;;;11.10;99.90;;;;;;5092877;28;20196;-70
2023/03/24 00:23:32;;;;;;;4.82;3.72;;;11.00;99.90;;;;;;5092863;28;20173;-70
2023/03/24 00:26:05;;;;;;;4.00;3.50;;;11.10;99.90;;;;;;5094152;28;20199;-70
2023/03/24 00:28:35;;;;;;;5.60;3.58;;;11.00;99.90;;;;;;5092786;28;20571;-70
2023/03/24 00:31:04;;;;;;;3.97;3.63;;;11.00;99.90;;;;;;5092864;28;20165;-70
2023/03/24 00:33:31;;;;;;;4.70;3.67;;;11.10;99.90;;;;;;5092887;28;20259;-65
2023/03/24 00:35:59;;;;;;;4.45;3.80;;;11.10;99.90;;;;;;5093749;28;20192;-66
2023/03/24 00:38:25;;;;;;;4.55;3.70;;;11.10;99.90;;;;;;5093974;28;20204;-66
2023/03/24 00:40:52;;;;;;;5.03;3.70;;;11.10;99.90;;;;;;5093726;28;20652;-65
2023/03/24 00:43:18;;;;;;;4.35;3.95;;;11.20;99.90;;;;;;5092388;28;20187;-65
2023/03/24 00:45:45;;;;;;;4.85;3.40;;;11.20;99.90;;;;;;5092442;28;20177;-66
2023/03/24 00:48:17;;;;;;;3.92;3.63;;;11.20;99.90;;;;;;5093632;28;20218;-66
2023/03/24 00:50:49;;;;;;;3.80;3.50;;;11.20;99.90;;;;;;5093745;28;20180;-65
2023/03/24 00:53:16;;;;;;;6.00;3.65;;;11.30;99.90;;;;;;5093323;28;20184;-65
2023/03/24 00:55:44;;;;;;;6.00;3.80;;;11.40;99.90;;;;;;5093637;28;20222;-65
2023/03/24 00:58:16;;;;;;;4.20;3.80;;;11.50;99.90;;;;;;5091968;28;20216;-64
2023/03/24 01:00:44;;;;;;;4.70;3.78;;;11.50;99.90;;;;;;5093571;28;20237;-65
2023/03/24 01:03:10;;;;;;;3.65;3.30;;;11.60;99.90;;;;;;5093827;28;20242;-65
2023/03/24 01:05:36;;;;;;;5.35;3.58;;;11.60;99.90;;;;;;5091927;28;20652;-65
2023/03/24 01:08:03;;;;;;;4.10;3.70;;;11.70;99.90;;;;;;5092082;28;20249;-65
2023/03/24 01:10:32;;;;;;;4.05;3.70;;;11.60;99.90;;;;;;5093357;28;20252;-65
2023/03/24 01:12:59;;;;;;;4.43;4.00;;;11.60;99.90;;;;;;5093319;28;20175;-65
2023/03/24 01:15:28;;;;;;;4.35;3.92;;;11.60;99.90;;;;;;5093359;28;20181;-65
2023/03/24 01:17:54;;;;;;;3.72;3.42;;;11.70;99.90;;;;;;5093580;28;20204;-65
2023/03/24 01:20:22;;;;;;;3.88;3.53;;;11.80;99.90;;;;;;5091911;28;20221;-66
2023/03/24 01:22:48;;;;;;;4.15;3.67;;;11.70;99.90;;;;;;5093371;28;20256;-65
2023/03/24 01:25:18;;;;;;;5.68;3.65;;;11.60;99.90;;;;;;5093255;28;20176;-65
2023/03/24 01:27:46;;;;;;;5.97;4.20;;;11.60;99.90;;;;;;5092207;28;20548;-65
2023/03/24 01:30:14;;;;;;;4.30;3.70;;;11.60;99.90;;;;;;5093221;28;20173;-66
2023/03/24 01:32:40;;;;;;;3.70;3.40;;;11.50;99.90;;;;;;5092077;28;20181;-66
2023/03/24 01:35:07;;;;;;;4.45;4.03;;;11.50;99.90;;;;;;5093484;28;20173;-65
2023/03/24 01:37:32;;;;;;;4.25;3.85;;;11.50;99.90;;;;;;5093014;28;20189;-65
2023/03/24 01:39:58;;;;;;;5.15;4.05;;;11.50;99.90;;;;;;5093155;28;20256;-66
2023/03/24 01:42:26;;;;;;;5.53;4.57;;;11.40;99.90;;;;;;5093472;28;20172;-66
2023/03/24 01:44:58;;;;;;;4.40;4.00;;;11.50;99.90;;;;;;5093033;28;20215;-66
2023/03/24 01:47:24;;;;;;;5.75;4.18;;;11.50;99.90;;;;;;5093383;28;20587;-66
2023/03/24 01:49:59;;;;;;;4.22;3.80;;;11.50;99.90;;;;;;5091814;28;20652;-66
2023/03/24 01:52:35;;;;;;;8.73;4.40;;;11.50;99.90;;;;;;5093398;28;20591;-66
2023/03/24 01:55:17;;;;;;;6.05;4.03;;;11.50;99.90;;;;;;5093130;28;20176;-66
2023/03/24 01:57:47;;;;;;;4.45;4.00;;;11.50;99.90;;;;;;5091516;28;20205;-66
2023/03/24 02:00:17;;;;;;;6.43;4.03;;;11.40;99.90;;;;;;5093320;28;20215;-66
2023/03/24 02:02:53;;;;;;;6.93;4.30;;;11.50;99.90;;;;;;5093021;28;20165;-66
2023/03/24 02:05:21;;;;;;;4.15;3.80;;;11.40;99.90;;;;;;5093694;28;20149;-71
2023/03/24 02:08:08;;;;;;;4.68;4.10;;;11.40;99.90;;;;;;5096561;28;20232;-66
2023/03/24 02:10:35;;;;;;;5.13;3.90;;;11.40;99.90;;;;;;5095340;28;20220;-66
2023/03/24 02:13:02;;;;;;;5.43;4.35;;;11.40;99.90;;;;;;5096591;28;20203;-66
2023/03/24 02:15:30;;;;;;;4.97;4.03;;;11.40;99.90;;;;;;5095213;28;20555;-66
2023/03/24 02:18:26;;;;;;;4.95;3.90;;;11.40;99.90;;;;;;5096459;28;20205;-66
2023/03/24 02:21:24;;;;;;;5.25;4.05;;;11.50;99.90;;;;;;5095003;28;20208;-66
2023/03/24 02:24:11;;;;;;;4.53;3.97;;;11.50;99.90;;;;;;5064982;28;20193;-66
2023/03/24 02:27:02;;;;;;;4.53;4.07;;;11.40;99.90;;;;;;5076795;28;20520;-67
2023/03/24 02:30:07;;;;;;;5.82;4.18;;;11.60;99.90;;;;;;5076228;28;20162;-66
2023/03/24 02:32:51;;;;;;;4.25;3.90;;;11.60;99.90;;;;;;5075179;28;20262;-68
2023/03/24 02:35:50;;;;;;;4.75;4.18;;;11.70;99.90;;;;;;5074928;28;20642;-68
2023/03/24 02:38:33;;;;;;;5.00;4.00;;;11.70;99.90;;;;;;5077344;28;20597;-68
2023/03/24 02:41:25;;;;;;;4.85;4.20;;;11.70;99.90;;;;;;5078186;28;20170;-67
2023/03/24 02:44:18;;;;;;;4.53;4.13;;;11.70;99.90;;;;;;5079881;28;20161;-67
2023/03/24 02:46:54;;;;;;;6.70;4.88;;;11.70;99.90;;;;;;5078335;28;20159;-68
2023/03/24 02:49:38;;;;;;;5.50;4.82;;;11.60;99.90;;;;;;5075206;28;20177;-68
2023/03/24 02:52:17;;;;;;;6.00;4.65;;;11.60;99.90;;;;;;5079373;28;20188;-68
2023/03/24 02:54:59;;;;;;;5.28;4.78;;;11.60;99.90;;;;;;5096707;28;20165;-68
2023/03/24 02:57:35;;;;;;;4.95;4.45;;;11.60;99.90;;;;;;5096289;28;20617;-69
2023/03/24 03:00:18;;;;;;;5.95;5.10;;;11.60;99.90;;;;;;5096644;28;20165;-68
2023/03/24 03:03:07;;;;;;;5.30;4.80;;;11.60;99.90;;;;;;5096646;28;20161;-69
2023/03/24 03:05:47;;;;;;;5.53;4.88;;;11.60;99.90;;;;;;5096265;28;20157;-68
2023/03/24 03:08:16;;;;;;;5.18;4.65;;;11.70;99.90;;;;;;5094812;28;20200;-70
2023/03/24 03:10:46;;;;;;;7.47;5.32;;;11.80;99.90;;;;;;5095976;28;20195;-68
2023/03/24 03:13:30;;;;;;;5.30;4.25;;;11.90;99.90;;;;;;5095844;28;20185;-68
2023/03/24 03:16:02;;;;;;;5.75;5.03;;;11.90;99.90;;;;;;5095605;28;20188;-68
2023/03/24 03:18:39;;;;;;;6.72;4.88;;;11.90;99.90;;;;;;5095221;28;20193;-68
2023/03/24 03:21:12;;;;;;;5.47;4.57;;;12.00;99.90;;;;;;5093977;28;20200;-68
2023/03/24 03:23:46;;;;;;;5.60;4.28;;;12.00;99.90;;;;;;5094127;28;20191;-68
2023/03/24 03:26:16;;;;;;;5.00;4.50;;;12.00;99.90;;;;;;5095505;28;20158;-68
2023/03/24 03:28:48;;;;;;;5.90;4.40;;;11.90;99.90;;;;;;5095708;28;20574;-68
2023/03/24 03:31:22;;;;;;;6.03;4.60;;;12.10;99.90;;;;;;5095343;28;20161;-68
2023/03/24 03:34:14;;;;;;;5.03;4.40;;;12.10;99.90;;;;;;5095381;28;20554;-68
2023/03/24 03:37:12;;;;;;;4.90;4.40;;;12.10;99.90;;;;;;5093497;28;20219;-67
2023/03/24 03:39:54;;;;;;;4.82;4.43;;;12.10;99.90;;;;;;5095112;28;20181;-68
2023/03/24 03:42:20;;;;;;;7.47;4.30;;;12.20;99.90;;;;;;5095037;28;20153;-68
2023/03/24 03:44:46;;;;;;;5.70;4.20;;;12.30;99.90;;;;;;5093559;28;20174;-68
2023/03/24 03:47:14;;;;;;;5.47;4.20;;;12.30;99.90;;;;;;5093392;28;20193;-68
2023/03/24 03:49:40;;;;;;;5.80;4.40;;;12.30;99.90;;;;;;5093548;28;20173;-68
2023/03/24 03:52:06;;;;;;;6.70;4.82;;;12.30;99.90;;;;;;5093147;28;20267;-68
2023/03/24 03:54:33;;;;;;;7.82;4.57;;;12.30;99.90;;;;;;5094742;28;20573;-68
2023/03/24 03:56:59;;;;;;;7.38;4.80;;;12.30;99.90;;;;;;5093088;28;20629;-68
2023/03/24 03:59:32;;;;;;;5.13;4.63;;;12.30;99.90;;;;;;5093176;28;20649;-68
2023/03/24 04:02:25;;;;;;;8.02;4.53;;;12.30;99.90;;;;;;5095075;28;20198;-69
2023/03/24 04:05:13;;;;;;;5.10;4.60;;;12.20;99.90;;;;;;5091821;28;20182;-68
2023/03/24 04:08:02;;;;;;;5.63;4.63;;;12.20;99.90;;;;;;5094360;28;20310;-68
2023/03/24 04:11:06;;;;;;;4.85;4.43;;;12.20;99.90;;;;;;5093256;28;20169;-68
2023/03/24 04:14:08;;;;;;;6.53;4.30;;;12.20;99.90;;;;;;5094190;28;20172;-68
2023/03/24 04:16:53;;;;;;;7.65;4.85;;;12.30;99.90;;;;;;5094855;28;20193;-67
2023/03/24 04:19:43;;;;;;;6.38;5.63;;;12.20;99.90;;;;;;5093184;28;20197;-66
2023/03/24 04:22:37;;;;;;;6.38;4.97;;;12.20;99.90;;;;;;5094126;28;20251;-68
2023/03/24 04:25:28;;;;;;;5.30;4.80;;;12.20;99.90;;;;;;5092969;28;20192;-67
2023/03/24 04:28:06;;;;;;;7.05;5.60;;;12.10;99.90;;;;;;5092706;28;20205;-66
2023/03/24 04:30:42;;;;;;;5.65;4.80;;;12.10;99.90;;;;;;5092754;28;20176;-67
2023/03/24 04:33:37;;;;;;;6.78;4.90;;;12.20;99.90;;;;;;5094382;28;20171;-67
2023/03/24 04:36:17;;;;;;;5.50;5.00;;;12.10;99.90;;;;;;5093987;28;20804;-67
2023/03/24 04:38:47;;;;;;;7.22;5.70;;;12.10;99.90;;;;;;5093682;28;20204;-67
2023/03/24 04:41:16;;;;;;;6.57;4.90;;;12.10;99.90;;;;;;5094446;28;20154;-67
2023/03/24 04:43:44;;;;;;;7.68;4.97;;;12.00;99.90;;;;;;5093822;28;20625;-67
2023/03/24 04:46:10;;;;;;;5.95;5.30;;;11.90;99.90;;;;;;5093805;28;20188;-67
2023/03/24 04:48:36;;;;;;;6.53;5.43;;;11.90;99.90;;;;;;5093780;28;20195;-67
2023/03/24 04:51:03;;;;;;;7.68;6.35;;;11.90;99.90;;;;;;5092241;28;20595;-67
2023/03/24 04:53:29;;;;;;;6.75;5.82;;;11.90;99.90;;;;;;5093987;28;20177;-65
2023/03/24 04:56:03;;;;;;;7.50;6.15;;;11.90;99.90;;;;;;5094178;28;20173;-67
2023/03/24 04:58:29;;;;;;;8.60;5.50;;;11.90;99.90;;;;;;5093451;28;20251;-67
2023/03/24 05:00:57;;;;;;;6.93;5.82;;;11.90;99.90;;;;;;5093569;28;20581;-67
2023/03/24 05:03:24;;;;;;;7.55;5.70;;;11.90;99.90;;;;;;5093544;28;20532;-67
2023/03/24 05:05:51;;;;;;;8.30;6.10;;;11.80;99.90;;;;;;5093385;28;20173;-67
2023/03/24 05:08:18;;;;;;;7.30;6.00;;;11.80;99.90;;;;;;5093965;28;20279;-68
2023/03/24 05:10:44;;;;;;;9.98;6.65;;;11.70;99.90;;;;;;5092210;28;20177;-67
2023/03/24 05:13:11;;;;;;;7.00;6.30;;;11.70;99.90;;;;;;5092682;28;20180;-70
2023/03/24 05:15:37;;;;;;;8.30;6.72;;;11.60;99.90;;;;;;5092655;28;20181;-67
2023/03/24 05:18:04;;;;;;;8.10;7.07;;;11.50;99.90;;;;;;5093180;28;20673;-67
2023/03/24 05:20:29;;;;;;;8.52;7.10;;;11.50;99.90;;;;;;5093410;28;20707;-67
2023/03/24 05:22:55;;;;;;;8.07;6.05;;;11.50;99.90;;;;;;5082876;28;20204;-67
2023/03/24 05:25:21;;;;;;;7.53;5.53;;;11.40;99.90;;;;;;5071879;28;20173;-67
2023/03/24 05:27:47;;;;;;;5.32;4.82;;;11.40;99.90;;;;;;5073364;28;20525;-67
2023/03/24 05:30:14;;;;;;;6.75;4.95;;;11.40;99.90;;;;;;5073434;28;20255;-67
2023/03/24 05:32:40;;;;;;;6.25;4.63;;;11.50;99.90;;;;;;5073636;28;20645;-68
2023/03/24 05:35:06;;;;;;;4.82;4.35;;;11.50;99.90;;;;;;5073425;28;20637;-67
2023/03/24 05:37:32;;;;;;;5.65;4.20;;;11.60;99.90;;;;;;5072760;28;20194;-67
2023/03/24 05:39:58;;;;;;;6.38;3.78;;;11.60;99.90;;;;;;5073466;28;20174;-67
2023/03/24 05:42:24;;;;;;;4.60;4.10;;;11.60;99.90;;;;;;5076124;28;20597;-67
2023/03/24 05:44:50;;;;;;;4.40;3.97;;;11.50;99.90;;;;;;5075744;28;20260;-67
2023/03/24 05:47:18;;;;;;;6.90;4.30;;;11.50;99.90;;;;;;5076957;28;20189;-67
2023/03/24 05:49:45;;;;;;;4.72;4.30;;;11.40;99.90;;;;;;5075501;28;20254;-68
2023/03/24 05:52:13;;;;;;;9.15;4.78;;;11.50;99.90;;;;;;5081072;28;20223;-68
2023/03/24 05:54:39;;;;;;;4.93;4.35;;;11.50;99.90;;;;;;5096868;28;20193;-68
2023/03/24 05:57:09;;;;;;;5.60;4.03;;;11.50;99.90;;;;;;5095347;28;20193;-68
2023/03/24 05:59:34;;;;;;;3.70;3.45;;;11.50;99.90;;;;;;5095470;28;20200;-68
2023/03/24 06:02:00;;;;;;;4.32;3.80;;;11.50;99.90;;;;;;5096752;28;20658;-68
2023/03/24 06:04:29;;;;;;;5.43;3.90;;;11.60;99.90;;;;;;5096718;28;20578;-67
2023/03/24 06:06:58;;;;;;;5.03;4.13;;;11.60;99.90;;;;;;5095472;28;20200;-67
2023/03/24 06:09:31;;;;;;;4.47;4.07;;;11.60;99.90;;;;;;5096685;28;20271;-67
2023/03/24 06:12:03;;;;;;;5.88;4.65;;;11.60;99.90;;;;;;5096575;28;20517;-67
2023/03/24 06:14:29;;;;;;;6.15;4.60;;;11.50;99.90;;;;;;5095146;28;20267;-67
2023/03/24 06:16:58;;;;;;;6.38;4.32;;;11.40;99.90;;;;;;5096758;28;20254;-68
2023/03/24 06:19:26;;;;;;;5.85;4.80;;;11.40;99.90;;;;;;5095441;28;20215;-67
2023/03/24 06:21:52;;;;;;;7.28;4.68;;;11.40;99.90;;;;;;5095134;28;20644;-68
2023/03/24 06:24:18;;;;;;;6.05;4.57;;;11.40;99.90;;;;;;5096777;28;20153;-67
2023/03/24 06:26:44;;;;;;;5.80;4.47;;;11.40;99.90;;;;;;5096815;28;20230;-67
2023/03/24 06:29:11;;;;;;;6.75;5.10;;;11.40;99.90;;;;;;5095049;28;20482;-66
2023/03/24 06:31:38;;;;;;;4.93;4.18;;;11.40;99.90;;;;;;5095115;28;20660;-67
2023/03/24 06:34:05;;;;;;;5.90;4.90;;;11.40;99.90;;;;;;5096563;28;20200;-67
2023/03/24 06:36:33;;;;;;;9.88;4.75;;;11.30;99.90;;;;;;5095553;28;20529;-67
2023/03/24 06:39:01;;;;;;;5.65;4.43;;;11.30;99.90;;;;;;5095413;28;20292;-67
2023/03/24 06:41:27;;;;;;;6.07;4.60;;;11.20;99.90;;;;;;5095075;28;20227;-67
2023/03/24 06:43:53;;;;;;;6.20;4.65;;;11.20;99.90;;;;;;5096921;28;20278;-68
2023/03/24 06:46:19;;;;;;;6.45;4.47;;;11.10;99.90;;;;;;5094943;28;20202;-66
2023/03/24 06:48:45;;;;;;;8.85;5.18;;;11.10;99.90;;;;;;5096233;28;20636;-66
2023/03/24 06:51:11;;;;;;;7.03;5.10;;;11.00;99.90;;;;;;5096090;28;20256;-66
2023/03/24 06:53:39;;;;;;;9.73;5.15;;;11.00;99.90;;;;;;5094436;28;20279;-65
2023/03/24 06:56:06;;;;;;;7.13;4.70;;;10.90;99.90;;;;;;5095707;28;20169;-66
2023/03/24 06:58:33;;;;;;;12.40;5.03;;;10.90;99.90;;;;;;5095273;28;20229;-65
2023/03/24 07:01:01;;;;;;;6.97;5.38;;;10.90;99.90;;;;;;5094199;28;20218;-65
2023/03/24 07:03:27;;;;;;;10.60;5.88;;;10.90;99.90;;;;;;5094359;28;20181;-65
2023/03/24 07:05:54;;;;;;;10.67;6.27;;;10.80;99.90;;;;;;5095625;28;20166;-65
2023/03/24 07:08:20;;;;;;;8.13;6.68;;;10.80;99.90;;;;;;5094209;28;20201;-66
2023/03/24 07:10:46;;;;;;;11.35;8.13;;;10.80;99.90;;;;;;5095970;28;20495;-65
2023/03/24 07:13:12;;;;;;;8.57;6.13;;;10.80;99.90;;;;;;5094131;28;20165;-65
2023/03/24 07:15:37;;;;;;;9.70;7.38;;;10.80;99.90;;;;;;5094149;28;20672;-66
2023/03/24 07:18:03;;;;;;;11.07;6.47;;;10.70;99.90;;;;;;5095215;28;20370;-66
2023/03/24 07:20:29;;;;;;;10.23;6.57;;;10.70;99.90;;;;;;5094069;28;20248;-66
2023/03/24 07:22:56;;;;;;;10.43;6.00;;;10.70;99.90;;;;;;5093753;28;20230;-66
2023/03/24 07:25:22;;;;;;;8.40;5.37;;;10.70;99.90;;;;;;5095354;28;20189;-67
2023/03/24 07:27:52;;;;;;;7.53;5.07;;;10.80;99.90;;;;;;5095467;28;20197;-67
2023/03/24 07:30:17;;;;;;;6.60;3.90;;;10.80;99.90;;;;;;5096284;28;20193;-64
2023/03/24 07:32:43;;;;;;;6.10;3.83;;;10.90;99.90;;;;;;5095515;28;20649;-64
2023/03/24 07:35:11;;;;;;;8.18;4.00;;;10.90;99.90;;;;;;5095420;28;20192;-64
2023/03/24 07:37:37;;;;;;;4.73;3.80;;;10.90;99.90;;;;;;5093307;28;20204;-64
2023/03/24 07:40:05;;;;;;;7.03;4.07;;;10.90;99.90;;;;;;5094910;28;20189;-64
2023/03/24 07:42:31;;;;;;;11.73;3.63;;;10.80;99.90;;;;;;5093479;28;20176;-67
2023/03/24 07:44:57;;;;;;;8.20;4.13;;;10.70;99.90;;;;;;5094693;28;20158;-67
2023/03/24 07:47:23;;;;;;;7.85;3.78;;;10.70;99.90;;;;;;5094895;28;20189;-67
2023/03/24 07:49:49;;;;;;;5.33;3.73;;;10.70;99.90;;;;;;5094944;28;20522;-67
2023/03/24 07:52:14;;;;;;;7.83;3.73;;;10.70;99.90;;;;;;5093209;28;20185;-67
2023/03/24 07:54:40;;;;;;;14.63;3.83;;;10.70;99.90;;;;;;5093384;28;20630;-67
2023/03/24 07:57:06;;;;;;;6.67;4.00;;;10.80;99.90;;;;;;5093008;28;20680;-67
2023/03/24 07:59:33;;;;;;;9.10;4.15;;;10.90;99.90;;;;;;5094468;28;20650;-67
2023/03/24 08:01:59;;;;;;;9.88;4.07;;;11.00;99.90;;;;;;5093121;28;20162;-67
2023/03/24 08:04:26;;;;;;;10.53;3.97;;;10.90;99.90;;;;;;5093906;28;20156;-67
2023/03/24 08:06:52;;;;;;;11.27;3.90;;;10.80;99.90;;;;;;5094047;28;20261;-67
2023/03/24 08:09:18;;;;;;;8.83;4.13;;;10.70;99.90;;;;;;5094200;28;20204;-67
2023/03/24 08:11:44;;;;;;;8.23;4.03;;;10.60;99.90;;;;;;5092890;28;20234;-67
2023/03/24 08:14:10;;;;;;;9.38;4.30;;;10.60;99.90;;;;;;5092892;28;20173;-67
2023/03/24 08:16:37;;;;;;;11.30;3.90;;;10.70;99.90;;;;;;5092893;28;20176;-67
2023/03/24 08:19:04;;;;;;;9.68;3.78;;;10.90;99.90;;;;;;5092599;28;20205;-67
2023/03/24 08:21:30;;;;;;;13.30;3.90;;;11.00;99.90;;;;;;5092694;28;20184;-67
2023/03/24 08:23:55;;;;;;;8.02;4.18;;;11.00;99.90;;;;;;5094016;28;20181;-67
2023/03/24 08:26:25;;;;;;;11.43;4.07;;;11.20;99.90;;;;;;5092949;28;20642;-67
2023/03/24 08:28:52;;;;;;;12.00;3.97;;;11.40;99.90;;;;;;5094577;28;20216;-67
2023/03/24 08:31:18;;;;;;;17.25;4.75;;;11.40;99.90;;;;;;5094750;28;20203;-67
2023/03/24 08:33:44;;;;;;;13.43;4.13;;;11.30;99.90;;;;;;5094084;28;20260;-67
2023/03/24 08:36:10;;;;;;;7.82;3.70;;;11.40;99.90;;;;;;5096112;28;20204;-67
2023/03/24 08:38:37;;;;;;;10.75;4.30;;;11.50;99.90;;;;;;5094838;28;20208;-67
2023/03/24 08:41:08;;;;;;;5.97;3.33;;;11.60;99.90;;;;;;5092935;28;20165;-67
2023/03/24 08:43:36;;;;;;;10.77;4.35;;;11.70;99.90;;;;;;5092636;28;20321;-67
2023/03/24 08:46:05;;;;;;;12.60;4.07;;;11.60;99.90;;;;;;5094081;28;20230;-64
2023/03/24 08:48:31;;;;;;;7.82;4.07;;;11.50;99.90;;;;;;5093864;28;20657;-64
2023/03/24 08:50:57;;;;;;;8.68;3.95;;;11.30;99.90;;;;;;5092400;28;20173;-64
2023/03/24 08:53:23;;;;;;;8.63;3.85;;;11.40;99.90;;;;;;5093128;28;20191;-69
2023/03/24 08:55:49;;;;;;;10.23;4.25;;;11.50;99.90;;;;;;5092522;28;20630;-69
2023/03/24 08:58:17;;;;;;;6.55;3.58;;;11.60;99.90;;;;;;5093580;28;20302;-69
2023/03/24 09:00:44;;;;;;;10.45;4.22;;;11.80;99.90;;;;;;5093187;28;20173;-67
2023/03/24 09:03:17;;;;;;;10.18;3.83;;;11.80;99.90;;;;;;5095241;28;20173;-64
2023/03/24 09:05:45;;;;;;;5.50;3.90;;;11.80;99.90;;;;;;5093841;28;20184;-64
2023/03/24 09:08:13;;;;;;;10.55;5.15;;;11.80;99.90;;;;;;5093311;28;20775;-64
2023/03/24 09:10:41;;;;;;;7.85;4.45;;;11.80;99.90;;;;;;5092153;28;20590;-64
2023/03/24 09:13:07;;;;;;;8.48;4.50;;;11.70;99.90;;;;;;5092255;28;20173;-66
2023/03/24 09:15:33;;;;;;;8.25;4.10;;;11.80;99.90;;;;;;5096752;28;20164;-66
2023/03/24 09:17:59;;;;;;;9.68;4.63;;;12.00;99.90;;;;;;5096281;28;20684;-66
2023/03/24 09:20:26;;;;;;;10.85;4.55;;;12.10;99.90;;;;;;5096428;28;20173;-66
2023/03/24 09:22:53;;;;;;;11.13;4.65;;;12.10;99.90;;;;;;5098182;28;20183;-64
2023/03/24 09:25:22;;;;;;;8.52;4.22;;;12.20;99.90;;;;;;5099308;28;20650;-64
2023/03/24 09:27:50;;;;;;;9.65;4.53;;;12.40;99.90;;;;;;5097087;28;20203;-67
2023/03/24 09:30:22;;;;;;;8.65;4.70;;;12.30;99.90;;;;;;5097148;28;20161;-69
2023/03/24 09:32:48;;;;;;;11.32;4.25;;;12.60;99.90;;;;;;5097705;28;20166;-66
2023/03/24 09:35:14;;;;;;;12.23;4.53;;;12.60;99.90;;;;;;5097432;28;20180;-69
2023/03/24 09:37:42;;;;;;;10.10;4.75;;;12.60;99.90;;;;;;5097622;28;20189;-67
2023/03/24 09:40:20;;;;;;;13.63;4.53;;;12.40;99.90;;;;;;5098662;28;20149;-65
2023/03/24 09:42:53;;;;;;;8.82;4.68;;;12.50;99.90;;;;;;5097972;28;20184;-69
2023/03/24 09:45:52;;;;;;;12.95;4.47;;;12.30;99.90;;;;;;5097128;28;20244;-64
2023/03/24 09:48:35;;;;;;;11.57;4.72;;;12.40;99.90;;;;;;5096002;28;20202;-64
2023/03/24 09:51:23;;;;;;;11.10;4.88;;;12.50;99.90;;;;;;5096794;28;20714;-67
2023/03/24 09:54:26;;;;;;;10.70;4.43;;;12.60;99.90;;;;;;5099043;28;20272;-64
2023/03/24 09:56:54;;;;;;;12.07;4.88;;;12.80;99.90;;;;;;5096911;28;20175;-65
2023/03/24 09:59:43;;;;;;;8.45;4.72;;;12.90;99.90;;;;;;5095813;28;20291;-64
2023/03/24 10:02:19;;;;;;;10.35;4.95;;;12.80;99.90;;;;;;5097234;28;20216;-65
2023/03/24 10:04:45;;;;;;;10.48;4.05;;;12.40;99.90;;;;;;5096120;28;20173;-67
2023/03/24 10:07:31;;;;;;;13.38;5.30;;;12.50;99.90;;;;;;5096783;28;20217;-65
2023/03/24 10:09:59;;;;;;;11.10;5.05;;;12.50;99.90;;;;;;5097569;28;20567;-65
2023/03/24 10:12:53;;;;;;;12.23;4.47;;;12.50;99.90;;;;;;5096883;28;20172;-64
2023/03/24 10:15:31;;;;;;;10.77;4.85;;;12.50;99.90;;;;;;5095356;28;20173;-64
2023/03/24 10:18:22;;;;;;;15.30;4.50;;;12.50;99.90;;;;;;5095114;28;20196;-64
2023/03/24 10:20:55;;;;;;;10.57;4.57;;;12.50;99.90;;;;;;5096802;28;20161;-63
2023/03/24 10:23:39;;;;;;;13.25;4.75;;;12.60;99.90;;;;;;5095075;28;20264;-64
2023/03/24 10:26:15;;;;;;;6.10;4.05;;;12.70;99.90;;;;;;5095619;28;20158;-64
2023/03/24 10:28:49;;;;;;;9.25;3.90;;;12.80;99.90;;;;;;5094973;28;20192;-64
2023/03/24 10:31:16;;;;;;;13.23;4.28;;;13.10;99.90;;;;;;5096248;28;20530;-65
2023/03/24 10:33:44;;;;;;;9.48;4.20;;;13.10;99.90;;;;;;5094995;28;20210;-64
2023/03/24 10:36:17;;;;;;;6.95;3.70;;;13.00;99.90;;;;;;5094770;28;20653;-64
2023/03/24 10:38:43;;;;;;;9.27;3.90;;;13.10;99.90;;;;;;5096722;28;20543;-64
2023/03/24 10:41:24;;;;;;;9.77;4.10;;;13.10;99.90;;;;;;5096308;28;20671;-64
2023/03/24 10:43:51;;;;;;;7.65;3.80;;;13.00;99.90;;;;;;5095940;28;20251;-67
2023/03/24 10:46:24;;;;;;;13.23;4.43;;;13.00;99.90;;;;;;5095762;28;20169;-67
2023/03/24 10:48:53;;;;;;;17.05;4.65;;;13.10;99.90;;;;;;5095848;28;20200;-67
2023/03/24 10:51:26;;;;;;;12.38;4.05;;;13.10;99.90;;;;;;5096106;28;20178;-68
2023/03/24 10:54:16;;;;;;;10.05;3.50;;;13.20;99.90;;;;;;5095077;28;20184;-66
2023/03/24 10:56:50;;;;;;;8.65;3.78;;;13.10;99.90;;;;;;5094676;28;20177;-67
2023/03/24 10:59:36;;;;;;;8.73;3.65;;;13.00;99.90;;;;;;5095069;28;20212;-70
2023/03/24 11:02:13;;;;;;;7.22;3.50;;;12.90;99.90;;;;;;5095905;28;20180;-68
2023/03/24 11:04:43;;;;;;;10.20;3.90;;;13.30;99.90;;;;;;5094783;28;20528;-70
2023/03/24 11:07:21;;;;;;;9.57;3.92;;;13.60;99.90;;;;;;5095508;28;20250;-70
2023/03/24 11:10:01;;;;;;;9.55;4.05;;;13.60;99.90;;;;;;5096053;28;20157;-70
2023/03/24 11:12:33;;;;;;;11.43;4.05;;;13.30;99.90;;;;;;5094672;28;20172;-71
2023/03/24 11:15:21;;;;;;;7.30;3.40;;;13.20;99.90;;;;;;5095346;28;20701;-72
2023/03/24 11:17:56;;;;;;;10.93;4.32;;;13.20;99.90;;;;;;5094463;28;20205;-71
2023/03/24 11:20:36;;;;;;;8.85;3.97;;;13.10;99.90;;;;;;5095547;28;20250;-68
2023/03/24 11:23:36;;;;;;;8.90;4.05;;;13.00;99.90;;;;;;5095479;28;20647;-72
2023/03/24 11:26:08;;;;;;;7.60;3.78;;;13.40;99.90;;;;;;5098273;28;20161;-70
2023/03/24 11:28:42;;;;;;;11.15;4.45;;;13.60;99.90;;;;;;5095804;28;20568;-73
2023/03/24 11:31:14;;;;;;;8.07;4.03;;;13.90;99.90;;;;;;5095694;28;20153;-69
2023/03/24 11:33:49;;;;;;;9.73;4.30;;;14.00;99.90;;;;;;5096824;28;20162;-69
2023/03/24 11:36:32;;;;;;;10.05;3.90;;;13.90;99.90;;;;;;5093669;28;20173;-69
2023/03/24 11:39:06;;;;;;;11.20;4.47;;;13.90;99.90;;;;;;5093646;28;20736;-69
2023/03/24 11:41:33;;;;;;;12.68;4.72;;;13.90;99.90;;;;;;5095018;28;20176;-69
2023/03/24 11:44:20;;;;;;;7.28;3.92;;;13.60;99.90;;;;;;5094806;28;20165;-69
2023/03/24 11:46:50;;;;;;;12.13;4.50;;;13.40;99.90;;;;;;5093226;28;20165;-69
2023/03/24 11:49:19;;;;;;;10.07;3.80;;;13.50;99.90;;;;;;5094590;28;20173;-69
2023/03/24 11:51:48;;;;;;;11.55;4.57;;;13.30;99.90;;;;;;5094430;28;20528;-69
2023/03/24 11:54:17;;;;;;;6.43;3.70;;;13.30;99.90;;;;;;5093278;28;20230;-69
2023/03/24 11:56:52;;;;;;;7.78;3.95;;;13.20;99.90;;;;;;5094398;28;20169;-69
2023/03/24 11:59:32;;;;;;;7.15;3.55;;;13.20;99.90;;;;;;5092957;28;20209;-69
2023/03/24 12:02:06;;;;;;;9.35;3.67;;;13.30;99.90;;;;;;5094718;28;20165;-69
2023/03/24 12:04:54;;;;;;;8.65;3.83;;;13.30;99.90;;;;;;5094598;28;20188;-69
2023/03/24 12:07:38;;;;;;;9.48;3.75;;;13.30;99.90;;;;;;5094097;28;20654;-70
2023/03/24 12:10:12;;;;;;;9.48;3.78;;;13.50;99.90;;;;;;5094387;28;20168;-70
2023/03/24 12:12:50;;;;;;;8.18;3.70;;;13.70;99.90;;;;;;5094349;28;20293;-70
2023/03/24 12:15:29;;;;;;;7.88;3.88;;;14.00;99.90;;;;;;5094245;28;20153;-69
2023/03/24 12:18:13;;;;;;;10.38;4.10;;;13.90;99.90;;;;;;5094863;28;20192;-70
2023/03/24 12:20:53;;;;;;;8.70;3.80;;;13.80;99.90;;;;;;5094129;28;20169;-69
2023/03/24 12:23:51;;;;;;;10.82;4.10;;;13.80;99.90;;;;;;5092740;28;20181;-69
2023/03/24 12:26:27;;;;;;;7.22;3.60;;;13.50;99.90;;;;;;5092779;28;20211;-70
2023/03/24 12:29:07;;;;;;;8.23;3.83;;;13.50;99.90;;;;;;5092829;28;20223;-70
2023/03/24 12:31:37;;;;;;;8.35;3.47;;;13.50;99.90;;;;;;5092691;28;20618;-70
2023/03/24 12:34:24;;;;;;;9.13;3.72;;;13.50;99.90;;;;;;5092667;28;20181;-70
2023/03/24 12:37:14;;;;;;;11.50;4.20;;;13.70;99.90;;;;;;5093707;28;20165;-69
2023/03/24 12:40:19;;;;;;;7.63;3.92;;;13.60;99.90;;;;;;5093832;28;20188;-70
2023/03/24 12:42:45;;;;;;;6.70;3.33;;;13.80;99.90;;;;;;5077236;28;20724;-70
2023/03/24 12:45:31;;;;;;;5.72;3.40;;;14.00;99.90;;;;;;5093809;28;20248;-70
2023/03/24 12:48:29;;;;;;;6.95;3.50;;;13.90;99.90;;;;;;5093679;28;20242;-69
2023/03/24 12:51:23;;;;;;;8.95;3.80;;;13.80;99.90;;;;;;5093627;28;20150;-69
2023/03/24 12:54:10;;;;;;;10.30;4.18;;;13.60;99.90;;;;;;5092251;28;20177;-70
2023/03/24 12:56:57;;;;;;;9.90;3.80;;;13.70;99.90;;;;;;5092490;28;20161;-70
2023/03/24 12:59:40;;;;;;;13.07;3.90;;;13.80;99.90;;;;;;5093949;28;20184;-70
2023/03/24 13:02:16;;;;;;;7.65;3.30;;;13.70;99.90;;;;;;5093705;28;20184;-70
2023/03/24 13:04:44;;;;;;;6.80;3.33;;;13.80;99.90;;;;;;5095042;28;20203;-70
2023/03/24 13:07:14;;;;;;;10.60;3.70;;;14.10;99.90;;;;;;5095508;28;20208;-67
2023/03/24 13:09:55;;;;;;;8.95;3.67;;;14.70;99.90;;;;;;5094830;28;20208;-70
2023/03/24 13:12:40;;;;;;;5.65;3.58;;;15.20;99.90;;;;;;5094494;28;20161;-67
2023/03/24 13:15:17;;;;;;;6.40;3.88;;;15.10;99.90;;;;;;5095285;28;20165;-66